KJAX

Jacksonville International

Airport
ICAO code
KJAX
IATA Code
JAX
Summary
ICAO Region
NAM
ICAO Territory
Location

Jacksonville, Florida

Serving
Jacksonville
Elevation
30 ft
Coordinates
30° 29' 39" N , 81° 41' 16" W
KCC
Airport WX
Tropical Revolving Storm
Metar
KJAX 151956Z 08011KT 10SM FEW050 34/17 A2996 RMK AO2 SLP146 T03390172

International airport serving Jacksonville, Florida, USA. The joint civil-military airport is 13 nm north of Jacksonville.

 

Airport map

Aerial View

SKYbrary Partners:

Safety knowledge contributed by: